sensor_id;sensor_type;location;lat;lon;timestamp;pressure;altitude;pressure_sealevel;temperature;humidity
64115;BME280;62188;35.640;139.748;2023-02-01T00:02:19;101647.40;;;14.21;20.08
64115;BME280;62188;35.640;139.748;2023-02-01T00:04:45;101646.95;;;14.19;20.32
64115;BME280;62188;35.640;139.748;2023-02-01T00:07:10;101636.23;;;14.07;20.52
64115;BME280;62188;35.640;139.748;2023-02-01T00:09:36;101630.09;;;13.88;20.82
64115;BME280;62188;35.640;139.748;2023-02-01T00:12:02;101629.13;;;14.30;20.51
64115;BME280;62188;35.640;139.748;2023-02-01T00:14:27;101634.41;;;14.47;20.40
64115;BME280;62188;35.640;139.748;2023-02-01T00:16:52;101640.28;;;14.65;20.25
64115;BME280;62188;35.640;139.748;2023-02-01T00:19:18;101642.32;;;14.33;20.39
64115;BME280;62188;35.640;139.748;2023-02-01T00:21:43;101629.33;;;14.26;20.43
64115;BME280;62188;35.640;139.748;2023-02-01T00:24:11;101624.16;;;14.38;20.38
64115;BME280;62188;35.640;139.748;2023-02-01T00:26:35;101619.81;;;14.43;20.33
64115;BME280;62188;35.640;139.748;2023-02-01T00:29:00;101615.28;;;14.13;20.53
64115;BME280;62188;35.640;139.748;2023-02-01T00:31:25;101613.17;;;14.55;20.48
64115;BME280;62188;35.640;139.748;2023-02-01T00:33:50;101612.90;;;14.76;20.30
64115;BME280;62188;35.640;139.748;2023-02-01T00:36:16;101605.69;;;15.20;20.09
64115;BME280;62188;35.640;139.748;2023-02-01T00:38:42;101599.38;;;15.23;20.37
64115;BME280;62188;35.640;139.748;2023-02-01T00:41:09;101593.08;;;15.66;20.15
64115;BME280;62188;35.640;139.748;2023-02-01T00:43:33;101591.81;;;15.43;19.90
64115;BME280;62188;35.640;139.748;2023-02-01T00:45:58;101589.79;;;15.09;20.33
64115;BME280;62188;35.640;139.748;2023-02-01T00:48:23;101579.72;;;15.08;20.66
64115;BME280;62188;35.640;139.748;2023-02-01T00:50:49;101575.70;;;15.07;21.03
64115;BME280;62188;35.640;139.748;2023-02-01T00:53:14;101576.32;;;14.49;21.59
64115;BME280;62188;35.640;139.748;2023-02-01T00:55:40;101568.87;;;14.27;21.93
64115;BME280;62188;35.640;139.748;2023-02-01T00:58:06;101563.00;;;14.06;22.28
64115;BME280;62188;35.640;139.748;2023-02-01T01:00:31;101550.70;;;14.23;22.40
64115;BME280;62188;35.640;139.748;2023-02-01T01:02:56;101547.97;;;14.60;22.37
64115;BME280;62188;35.640;139.748;2023-02-01T01:05:22;101544.38;;;14.98;22.27
64115;BME280;62188;35.640;139.748;2023-02-01T01:07:48;101544.36;;;15.11;22.35
64115;BME280;62188;35.640;139.748;2023-02-01T01:10:14;101534.20;;;14.99;22.57
64115;BME280;62188;35.640;139.748;2023-02-01T01:12:40;101524.23;;;15.31;22.49
64115;BME280;62188;35.640;139.748;2023-02-01T01:15:07;101526.84;;;15.07;22.70
64115;BME280;62188;35.640;139.748;2023-02-01T01:17:32;101523.28;;;14.72;23.35
64115;BME280;62188;35.640;139.748;2023-02-01T01:19:55;101510.39;;;14.59;23.65
64115;BME280;62188;35.640;139.748;2023-02-01T01:22:20;101504.61;;;15.31;23.61
64115;BME280;62188;35.640;139.748;2023-02-01T01:24:45;101493.00;;;15.26;23.73
64115;BME280;62188;35.640;139.748;2023-02-01T01:27:11;101485.37;;;15.32;24.28
64115;BME280;62188;35.640;139.748;2023-02-01T01:29:37;101468.69;;;15.48;24.65
64115;BME280;62188;35.640;139.748;2023-02-01T01:32:02;101460.23;;;15.87;24.69
64115;BME280;62188;35.640;139.748;2023-02-01T01:34:27;101450.89;;;16.04;24.72
64115;BME280;62188;35.640;139.748;2023-02-01T01:36:53;101445.58;;;15.44;24.91
64115;BME280;62188;35.640;139.748;2023-02-01T01:39:19;101433.02;;;16.23;25.68
64115;BME280;62188;35.640;139.748;2023-02-01T01:41:45;101423.71;;;16.25;25.61
64115;BME280;62188;35.640;139.748;2023-02-01T01:46:37;101401.97;;;16.92;24.31
64115;BME280;62188;35.640;139.748;2023-02-01T01:49:05;101387.18;;;16.71;23.27
64115;BME280;62188;35.640;139.748;2023-02-01T01:51:28;101374.35;;;16.78;22.87
64115;BME280;62188;35.640;139.748;2023-02-01T01:53:59;101378.30;;;16.72;21.79
64115;BME280;62188;35.640;139.748;2023-02-01T01:56:18;101367.63;;;16.16;21.00
64115;BME280;62188;35.640;139.748;2023-02-01T01:58:43;101368.90;;;16.58;21.25
64115;BME280;62188;35.640;139.748;2023-02-01T02:01:08;101351.60;;;16.09;21.27
64115;BME280;62188;35.640;139.748;2023-02-01T02:03:37;101339.08;;;16.47;21.65
64115;BME280;62188;35.640;139.748;2023-02-01T02:06:00;101337.99;;;16.64;21.04
64115;BME280;62188;35.640;139.748;2023-02-01T02:08:27;101331.44;;;16.40;21.09
64115;BME280;62188;35.640;139.748;2023-02-01T02:10:50;101322.09;;;16.46;20.27
64115;BME280;62188;35.640;139.748;2023-02-01T02:13:16;101319.74;;;16.33;19.68
64115;BME280;62188;35.640;139.748;2023-02-01T02:15:45;101309.62;;;16.68;19.48
64115;BME280;62188;35.640;139.748;2023-02-01T02:18:12;101299.31;;;16.37;19.43
64115;BME280;62188;35.640;139.748;2023-02-01T02:20:45;101277.06;;;17.33;19.40
64115;BME280;62188;35.640;139.748;2023-02-01T02:27:54;101255.63;;;17.17;18.23
64115;BME280;62188;35.640;139.748;2023-02-01T02:35:10;101221.40;;;17.77;17.01
64115;BME280;62188;35.640;139.748;2023-02-01T02:37:36;101206.27;;;18.01;16.57
64115;BME280;62188;35.640;139.748;2023-02-01T02:40:03;101203.38;;;17.49;16.18
64115;BME280;62188;35.640;139.748;2023-02-01T02:42:27;101203.35;;;17.65;16.27
64115;BME280;62188;35.640;139.748;2023-02-01T02:44:52;101183.54;;;17.81;15.67
64115;BME280;62188;35.640;139.748;2023-02-01T02:47:21;101193.76;;;17.43;14.68
64115;BME280;62188;35.640;139.748;2023-02-01T02:49:43;101194.72;;;17.61;14.86
64115;BME280;62188;35.640;139.748;2023-02-01T02:52:08;101191.13;;;17.52;14.55
64115;BME280;62188;35.640;139.748;2023-02-01T02:54:32;101183.57;;;17.47;14.03
64115;BME280;62188;35.640;139.748;2023-02-01T02:56:57;101183.03;;;17.38;14.13
64115;BME280;62188;35.640;139.748;2023-02-01T02:59:24;101177.09;;;17.21;14.05
64115;BME280;62188;35.640;139.748;2023-02-01T03:01:46;101173.67;;;17.24;14.26
64115;BME280;62188;35.640;139.748;2023-02-01T03:04:12;101177.73;;;17.09;14.61
64115;BME280;62188;35.640;139.748;2023-02-01T03:06:38;101179.21;;;17.41;14.54
64115;BME280;62188;35.640;139.748;2023-02-01T03:09:07;101168.23;;;17.14;14.77
64115;BME280;62188;35.640;139.748;2023-02-01T03:11:30;101169.52;;;16.62;15.20
64115;BME280;62188;35.640;139.748;2023-02-01T03:13:58;101160.90;;;17.14;15.50
64115;BME280;62188;35.640;139.748;2023-02-01T03:16:23;101156.59;;;17.31;15.68
64115;BME280;62188;35.640;139.748;2023-02-01T03:18:50;101152.25;;;17.63;15.20
64115;BME280;62188;35.640;139.748;2023-02-01T03:21:13;101164.07;;;17.39;14.54
64115;BME280;62188;35.640;139.748;2023-02-01T03:23:38;101140.23;;;17.24;14.82
64115;BME280;62188;35.640;139.748;2023-02-01T03:26:02;101137.08;;;17.54;15.05
64115;BME280;62188;35.640;139.748;2023-02-01T03:28:30;101121.39;;;17.55;14.93
64115;BME280;62188;35.640;139.748;2023-02-01T03:30:54;101132.86;;;17.39;14.92
64115;BME280;62188;35.640;139.748;2023-02-01T03:33:21;101105.51;;;16.46;15.35
64115;BME280;62188;35.640;139.748;2023-02-01T03:35:48;101108.36;;;16.25;15.82
64115;BME280;62188;35.640;139.748;2023-02-01T03:38:16;101089.50;;;16.01;16.29
64115;BME280;62188;35.640;139.748;2023-02-01T03:40:37;101080.25;;;16.02;16.76
64115;BME280;62188;35.640;139.748;2023-02-01T03:43:02;101067.12;;;16.08;17.01
64115;BME280;62188;35.640;139.748;2023-02-01T03:45:30;101060.28;;;15.99;17.14
64115;BME280;62188;35.640;139.748;2023-02-01T03:47:55;101060.01;;;15.94;17.41
64115;BME280;62188;35.640;139.748;2023-02-01T03:50:20;101052.91;;;15.66;17.46
64115;BME280;62188;35.640;139.748;2023-02-01T03:52:46;101044.40;;;15.64;17.52
64115;BME280;62188;35.640;139.748;2023-02-01T03:55:11;101034.49;;;16.09;17.68
64115;BME280;62188;35.640;139.748;2023-02-01T03:57:38;101025.68;;;15.64;18.02
64115;BME280;62188;35.640;139.748;2023-02-01T04:00:06;101016.32;;;16.07;18.35
64115;BME280;62188;35.640;139.748;2023-02-01T04:02:27;101028.01;;;16.06;18.29
64115;BME280;62188;35.640;139.748;2023-02-01T04:04:52;101017.25;;;15.71;18.38
64115;BME280;62188;35.640;139.748;2023-02-01T04:07:19;101032.22;;;15.24;18.53
64115;BME280;62188;35.640;139.748;2023-02-01T04:09:43;101019.14;;;15.45;18.77
64115;BME280;62188;35.640;139.748;2023-02-01T04:12:10;101022.80;;;15.62;18.71
64115;BME280;62188;35.640;139.748;2023-02-01T04:14:35;101012.10;;;15.39;18.70
64115;BME280;62188;35.640;139.748;2023-02-01T04:17:00;101011.98;;;15.73;18.88
64115;BME280;62188;35.640;139.748;2023-02-01T04:19:26;101004.35;;;15.10;19.23
64115;BME280;62188;35.640;139.748;2023-02-01T04:21:52;100997.69;;;15.55;19.55
64115;BME280;62188;35.640;139.748;2023-02-01T04:24:17;101006.99;;;14.61;19.77
64115;BME280;62188;35.640;139.748;2023-02-01T04:26:42;101012.03;;;14.36;19.96
64115;BME280;62188;35.640;139.748;2023-02-01T04:29:09;101008.29;;;14.61;19.86
64115;BME280;62188;35.640;139.748;2023-02-01T04:31:34;100989.10;;;14.47;20.10
64115;BME280;62188;35.640;139.748;2023-02-01T04:33:59;100979.78;;;14.63;20.08
64115;BME280;62188;35.640;139.748;2023-02-01T04:36:25;100980.29;;;14.71;20.19
64115;BME280;62188;35.640;139.748;2023-02-01T04:38:51;100984.40;;;14.83;20.41
64115;BME280;62188;35.640;139.748;2023-02-01T04:41:16;100972.08;;;15.13;20.44
64115;BME280;62188;35.640;139.748;2023-02-01T04:43:41;100972.11;;;14.76;20.52
64115;BME280;62188;35.640;139.748;2023-02-01T04:46:07;100959.47;;;14.96;20.60
64115;BME280;62188;35.640;139.748;2023-02-01T04:48:33;100952.17;;;14.97;20.75
64115;BME280;62188;35.640;139.748;2023-02-01T04:50:59;100953.02;;;14.82;20.72
64115;BME280;62188;35.640;139.748;2023-02-01T04:53:24;100936.08;;;14.95;20.66
64115;BME280;62188;35.640;139.748;2023-02-01T04:55:50;100927.78;;;15.33;20.77
64115;BME280;62188;35.640;139.748;2023-02-01T04:58:15;100928.99;;;15.24;21.01
64115;BME280;62188;35.640;139.748;2023-02-01T05:00:41;100924.17;;;15.36;21.01
64115;BME280;62188;35.640;139.748;2023-02-01T05:03:07;100896.98;;;15.09;20.90
64115;BME280;62188;35.640;139.748;2023-02-01T05:05:32;100933.12;;;15.31;20.68
64115;BME280;62188;35.640;139.748;2023-02-01T05:07:58;100915.37;;;15.21;20.61
64115;BME280;62188;35.640;139.748;2023-02-01T05:10:23;100901.66;;;15.12;20.48
64115;BME280;62188;35.640;139.748;2023-02-01T05:12:49;100893.78;;;15.22;20.78
64115;BME280;62188;35.640;139.748;2023-02-01T05:15:14;100879.89;;;15.05;20.97
64115;BME280;62188;35.640;139.748;2023-02-01T05:17:40;100892.36;;;14.93;21.25
64115;BME280;62188;35.640;139.748;2023-02-01T05:20:07;100867.33;;;14.79;21.70
64115;BME280;62188;35.640;139.748;2023-02-01T05:22:32;100879.84;;;14.97;21.94
64115;BME280;62188;35.640;139.748;2023-02-01T05:24:58;100862.99;;;14.58;22.15
64115;BME280;62188;35.640;139.748;2023-02-01T05:27:22;100858.81;;;14.73;22.34
64115;BME280;62188;35.640;139.748;2023-02-01T05:29:48;100849.85;;;14.75;22.32
64115;BME280;62188;35.640;139.748;2023-02-01T05:32:14;100849.64;;;14.83;22.57
64115;BME280;62188;35.640;139.748;2023-02-01T05:34:39;100845.46;;;14.50;22.73
64115;BME280;62188;35.640;139.748;2023-02-01T05:37:06;100828.25;;;14.46;23.22
64115;BME280;62188;35.640;139.748;2023-02-01T05:39:31;100823.22;;;14.46;23.44
64115;BME280;62188;35.640;139.748;2023-02-01T05:41:57;100830.21;;;14.05;23.83
64115;BME280;62188;35.640;139.748;2023-02-01T05:44:22;100842.74;;;14.18;23.87
64115;BME280;62188;35.640;139.748;2023-02-01T05:46:48;100826.05;;;14.04;24.01
64115;BME280;62188;35.640;139.748;2023-02-01T05:49:14;100829.35;;;14.04;24.09
64115;BME280;62188;35.640;139.748;2023-02-01T05:51:39;100818.07;;;14.09;24.53
64115;BME280;62188;35.640;139.748;2023-02-01T05:54:04;100825.05;;;13.81;24.82
64115;BME280;62188;35.640;139.748;2023-02-01T05:56:30;100816.41;;;14.21;24.65
64115;BME280;62188;35.640;139.748;2023-02-01T05:58:56;100818.22;;;13.73;24.57
64115;BME280;62188;35.640;139.748;2023-02-01T06:01:21;100814.48;;;14.02;24.59
64115;BME280;62188;35.640;139.748;2023-02-01T06:03:48;100808.99;;;13.89;24.62
64115;BME280;62188;35.640;139.748;2023-02-01T06:06:13;100825.33;;;13.68;24.70
64115;BME280;62188;35.640;139.748;2023-02-01T06:08:39;100811.94;;;13.97;24.34
64115;BME280;62188;35.640;139.748;2023-02-01T06:11:06;100804.84;;;13.59;25.09
64115;BME280;62188;35.640;139.748;2023-02-01T06:13:30;100807.32;;;13.92;25.12
64115;BME280;62188;35.640;139.748;2023-02-01T06:15:57;100804.40;;;14.07;25.12
64115;BME280;62188;35.640;139.748;2023-02-01T06:18:21;100815.22;;;14.10;25.12
64115;BME280;62188;35.640;139.748;2023-02-01T06:20:53;100811.75;;;13.65;25.24
64115;BME280;62188;35.640;139.748;2023-02-01T06:23:13;100819.60;;;13.62;25.31
64115;BME280;62188;35.640;139.748;2023-02-01T06:25:39;100807.57;;;13.76;25.27
64115;BME280;62188;35.640;139.748;2023-02-01T06:28:04;100813.01;;;13.75;25.21
64115;BME280;62188;35.640;139.748;2023-02-01T06:30:30;100818.42;;;13.71;25.45
64115;BME280;62188;35.640;139.748;2023-02-01T06:32:55;100810.41;;;13.82;25.46
64115;BME280;62188;35.640;139.748;2023-02-01T06:35:21;100803.44;;;13.66;25.61
64115;BME280;62188;35.640;139.748;2023-02-01T06:37:47;100794.89;;;13.49;25.52
64115;BME280;62188;35.640;139.748;2023-02-01T06:40:13;100785.50;;;13.78;25.52
64115;BME280;62188;35.640;139.748;2023-02-01T06:42:38;100780.50;;;13.68;25.43
64115;BME280;62188;35.640;139.748;2023-02-01T06:45:04;100795.91;;;13.30;25.50
64115;BME280;62188;35.640;139.748;2023-02-01T06:47:29;100788.07;;;13.66;25.37
64115;BME280;62188;35.640;139.748;2023-02-01T06:49:55;100782.52;;;13.87;25.16
64115;BME280;62188;35.640;139.748;2023-02-01T06:52:21;100762.20;;;13.78;25.16
64115;BME280;62188;35.640;139.748;2023-02-01T06:54:46;100771.40;;;13.31;25.15
64115;BME280;62188;35.640;139.748;2023-02-01T06:57:13;100782.75;;;13.90;25.04
64115;BME280;62188;35.640;139.748;2023-02-01T06:59:37;100784.50;;;13.65;25.12
64115;BME280;62188;35.640;139.748;2023-02-01T07:02:03;100772.15;;;13.55;24.91
64115;BME280;62188;35.640;139.748;2023-02-01T07:04:29;100773.44;;;14.01;24.69
64115;BME280;62188;35.640;139.748;2023-02-01T07:06:55;100763.64;;;13.53;24.71
64115;BME280;62188;35.640;139.748;2023-02-01T07:09:21;100759.65;;;13.78;24.55
64115;BME280;62188;35.640;139.748;2023-02-01T07:11:46;100767.87;;;13.71;24.51
64115;BME280;62188;35.640;139.748;2023-02-01T07:14:12;100759.73;;;13.66;24.49
64115;BME280;62188;35.640;139.748;2023-02-01T07:16:38;100767.81;;;13.61;24.22
64115;BME280;62188;35.640;139.748;2023-02-01T07:19:03;100768.15;;;13.81;24.14
64115;BME280;62188;35.640;139.748;2023-02-01T07:21:29;100768.77;;;13.93;23.87
64115;BME280;62188;35.640;139.748;2023-02-01T07:23:55;100760.17;;;13.36;24.01
64115;BME280;62188;35.640;139.748;2023-02-01T07:26:20;100762.15;;;13.61;23.88
64115;BME280;62188;35.640;139.748;2023-02-01T07:28:46;100757.04;;;13.87;23.72
64115;BME280;62188;35.640;139.748;2023-02-01T07:31:13;100748.32;;;13.73;23.91
64115;BME280;62188;35.640;139.748;2023-02-01T07:33:37;100728.93;;;13.67;23.85
64115;BME280;62188;35.640;139.748;2023-02-01T07:36:05;100728.75;;;13.68;23.63
64115;BME280;62188;35.640;139.748;2023-02-01T07:38:29;100726.99;;;13.37;23.55
64115;BME280;62188;35.640;139.748;2023-02-01T07:40:58;100708.94;;;13.54;23.49
64115;BME280;62188;35.640;139.748;2023-02-01T07:43:20;100709.58;;;13.28;23.52
64115;BME280;62188;35.640;139.748;2023-02-01T07:45:51;100712.37;;;13.36;23.60
64115;BME280;62188;35.640;139.748;2023-02-01T07:48:12;100711.84;;;13.37;23.53
64115;BME280;62188;35.640;139.748;2023-02-01T07:50:37;100723.32;;;13.35;23.59
64115;BME280;62188;35.640;139.748;2023-02-01T07:53:03;100725.00;;;13.18;23.35
64115;BME280;62188;35.640;139.748;2023-02-01T07:55:29;100718.92;;;13.13;23.39
64115;BME280;62188;35.640;139.748;2023-02-01T07:57:58;100728.91;;;12.96;23.47
64115;BME280;62188;35.640;139.748;2023-02-01T08:00:22;100721.91;;;13.40;23.63
64115;BME280;62188;35.640;139.748;2023-02-01T08:02:45;100724.15;;;13.16;23.55
64115;BME280;62188;35.640;139.748;2023-02-01T08:05:11;100734.33;;;13.15;23.51
64115;BME280;62188;35.640;139.748;2023-02-01T08:07:37;100727.61;;;13.14;23.56
64115;BME280;62188;35.640;139.748;2023-02-01T08:10:03;100724.81;;;13.48;23.52
64115;BME280;62188;35.640;139.748;2023-02-01T08:12:29;100729.75;;;13.43;23.53
64115;BME280;62188;35.640;139.748;2023-02-01T08:14:54;100731.96;;;13.59;23.28
64115;BME280;62188;35.640;139.748;2023-02-01T08:17:20;100730.11;;;13.38;23.29
64115;BME280;62188;35.640;139.748;2023-02-01T08:19:45;100733.28;;;13.45;23.12
64115;BME280;62188;35.640;139.748;2023-02-01T08:22:11;100726.72;;;13.50;23.24
64115;BME280;62188;35.640;139.748;2023-02-01T08:24:37;100718.01;;;13.47;23.24
64115;BME280;62188;35.640;139.748;2023-02-01T08:27:09;100719.97;;;13.59;23.31
64115;BME280;62188;35.640;139.748;2023-02-01T08:29:28;100723.30;;;13.77;23.22
64115;BME280;62188;35.640;139.748;2023-02-01T08:31:53;100713.25;;;13.50;23.44
64115;BME280;62188;35.640;139.748;2023-02-01T08:34:19;100710.60;;;13.75;23.34
64115;BME280;62188;35.640;139.748;2023-02-01T08:36:44;100713.22;;;13.67;23.43
64115;BME280;62188;35.640;139.748;2023-02-01T08:39:11;100714.42;;;13.64;23.43
64115;BME280;62188;35.640;139.748;2023-02-01T08:41:36;100719.53;;;13.53;23.26
64115;BME280;62188;35.640;139.748;2023-02-01T08:44:02;100717.58;;;13.59;23.20
64115;BME280;62188;35.640;139.748;2023-02-01T08:46:27;100717.43;;;14.22;23.10
64115;BME280;62188;35.640;139.748;2023-02-01T08:48:53;100718.21;;;13.74;23.09
64115;BME280;62188;35.640;139.748;2023-02-01T08:51:22;100717.73;;;13.80;23.11
64115;BME280;62188;35.640;139.748;2023-02-01T08:53:45;100725.67;;;13.82;23.15
64115;BME280;62188;35.640;139.748;2023-02-01T08:56:11;100726.09;;;13.80;23.25
64115;BME280;62188;35.640;139.748;2023-02-01T08:58:36;100726.40;;;13.47;23.37
64115;BME280;62188;35.640;139.748;2023-02-01T09:01:04;100718.15;;;13.47;23.40
64115;BME280;62188;35.640;139.748;2023-02-01T09:03:28;100715.81;;;13.82;23.41
64115;BME280;62188;35.640;139.748;2023-02-01T09:05:57;100710.28;;;13.52;23.40
64115;BME280;62188;35.640;139.748;2023-02-01T09:08:18;100703.89;;;14.00;23.53
64115;BME280;62188;35.640;139.748;2023-02-01T09:10:44;100701.76;;;13.67;23.72
64115;BME280;62188;35.640;139.748;2023-02-01T09:13:10;100703.76;;;13.42;23.76
64115;BME280;62188;35.640;139.748;2023-02-01T09:15:36;100699.85;;;13.82;23.80
64115;BME280;62188;35.640;139.748;2023-02-01T09:18:01;100704.71;;;13.58;23.90
64115;BME280;62188;35.640;139.748;2023-02-01T09:20:27;100704.12;;;13.36;24.02
64115;BME280;62188;35.640;139.748;2023-02-01T09:22:54;100700.87;;;13.37;24.05
64115;BME280;62188;35.640;139.748;2023-02-01T09:25:18;100701.93;;;13.54;24.14
64115;BME280;62188;35.640;139.748;2023-02-01T09:27:44;100709.12;;;13.70;24.24
64115;BME280;62188;35.640;139.748;2023-02-01T09:30:11;100711.79;;;13.62;23.96
64115;BME280;62188;35.640;139.748;2023-02-01T09:32:35;100712.83;;;13.88;23.93
64115;BME280;62188;35.640;139.748;2023-02-01T09:35:01;100706.93;;;13.74;23.93
64115;BME280;62188;35.640;139.748;2023-02-01T09:37:27;100717.96;;;14.14;23.80
64115;BME280;62188;35.640;139.748;2023-02-01T09:39:52;100717.07;;;14.21;23.66
64115;BME280;62188;35.640;139.748;2023-02-01T09:42:40;100719.74;;;14.20;23.59
64115;BME280;62188;35.640;139.748;2023-02-01T09:47:12;100724.54;;;13.86;23.52
64115;BME280;62188;35.640;139.748;2023-02-01T09:49:37;100713.81;;;13.86;23.55
64115;BME280;62188;35.640;139.748;2023-02-01T09:52:04;100726.23;;;13.92;23.59
64115;BME280;62188;35.640;139.748;2023-02-01T09:54:28;100721.47;;;14.04;23.52
64115;BME280;62188;35.640;139.748;2023-02-01T09:56:56;100724.30;;;13.83;23.48
64115;BME280;62188;35.640;139.748;2023-02-01T09:59:29;100716.48;;;14.06;23.35
64115;BME280;62188;35.640;139.748;2023-02-01T10:01:43;100719.39;;;14.02;23.54
64115;BME280;62188;35.640;139.748;2023-02-01T10:04:11;100719.12;;;14.07;23.53
64115;BME280;62188;35.640;139.748;2023-02-01T10:06:40;100723.84;;;14.09;24.67
64115;BME280;62188;35.640;139.748;2023-02-01T10:09:15;100707.49;;;14.13;23.69
64115;BME280;62188;35.640;139.748;2023-02-01T10:11:35;100715.10;;;14.19;23.51
64115;BME280;62188;35.640;139.748;2023-02-01T10:13:57;100707.94;;;14.23;23.41
64115;BME280;62188;35.640;139.748;2023-02-01T10:16:24;100711.91;;;14.32;23.42
64115;BME280;62188;35.640;139.748;2023-02-01T10:18:55;100715.06;;;14.34;23.47
64115;BME280;62188;35.640;139.748;2023-02-01T10:21:15;100714.28;;;14.26;23.39
64115;BME280;62188;35.640;139.748;2023-02-01T10:26:04;100713.11;;;14.34;23.23
64115;BME280;62188;35.640;139.748;2023-02-01T10:28:26;100721.80;;;14.31;23.22
64115;BME280;62188;35.640;139.748;2023-02-01T10:30:54;100719.18;;;14.28;23.30
64115;BME280;62188;35.640;139.748;2023-02-01T10:33:18;100704.36;;;14.16;23.36
64115;BME280;62188;35.640;139.748;2023-02-01T10:35:42;100704.31;;;14.18;23.41
64115;BME280;62188;35.640;139.748;2023-02-01T10:38:18;100701.34;;;14.12;23.28
64115;BME280;62188;35.640;139.748;2023-02-01T10:40:34;100698.12;;;14.07;23.37
64115;BME280;62188;35.640;139.748;2023-02-01T10:43:01;100698.71;;;13.95;23.56
64115;BME280;62188;35.640;139.748;2023-02-01T10:45:27;100702.45;;;13.78;23.50
64115;BME280;62188;35.640;139.748;2023-02-01T10:47:52;100699.41;;;14.08;23.48
64115;BME280;62188;35.640;139.748;2023-02-01T10:50:23;100704.70;;;14.09;23.54
64115;BME280;62188;35.640;139.748;2023-02-01T10:52:46;100705.36;;;14.09;23.50
64115;BME280;62188;35.640;139.748;2023-02-01T10:57:33;100706.38;;;14.20;23.47
64115;BME280;62188;35.640;139.748;2023-02-01T10:59:59;100706.47;;;14.20;23.34
64115;BME280;62188;35.640;139.748;2023-02-01T11:02:28;100703.25;;;13.95;23.46
64115;BME280;62188;35.640;139.748;2023-02-01T11:04:51;100702.52;;;13.94;23.50
64115;BME280;62188;35.640;139.748;2023-02-01T11:07:19;100706.88;;;13.94;23.55
64115;BME280;62188;35.640;139.748;2023-02-01T11:09:42;100704.91;;;14.01;23.69
64115;BME280;62188;35.640;139.748;2023-02-01T11:12:22;100703.59;;;14.04;23.84
64115;BME280;62188;35.640;139.748;2023-02-01T11:14:39;100702.92;;;14.07;23.62
64115;BME280;62188;35.640;139.748;2023-02-01T11:17:00;100700.23;;;14.08;23.87
64115;BME280;62188;35.640;139.748;2023-02-01T11:19:24;100697.78;;;14.09;23.68
64115;BME280;62188;35.640;139.748;2023-02-01T11:21:53;100700.36;;;14.08;23.68
64115;BME280;62188;35.640;139.748;2023-02-01T11:24:21;100703.83;;;14.09;23.73
64115;BME280;62188;35.640;139.748;2023-02-01T11:26:42;100707.97;;;14.12;23.87
64115;BME280;62188;35.640;139.748;2023-02-01T11:29:12;100701.74;;;14.08;23.85
64115;BME280;62188;35.640;139.748;2023-02-01T11:31:35;100696.59;;;14.09;23.87
64115;BME280;62188;35.640;139.748;2023-02-01T11:34:04;100691.25;;;14.04;23.84
64115;BME280;62188;35.640;139.748;2023-02-01T11:36:27;100694.05;;;14.06;23.84
64115;BME280;62188;35.640;139.748;2023-02-01T11:38:54;100689.09;;;14.08;23.90
64115;BME280;62188;35.640;139.748;2023-02-01T11:41:20;100690.64;;;14.12;23.99
64115;BME280;62188;35.640;139.748;2023-02-01T11:43:51;100687.52;;;14.14;24.01
64115;BME280;62188;35.640;139.748;2023-02-01T11:46:16;100686.85;;;14.07;24.08
64115;BME280;62188;35.640;139.748;2023-02-01T11:48:33;100686.67;;;14.00;24.24
64115;BME280;62188;35.640;139.748;2023-02-01T11:53:31;100687.76;;;13.91;24.26
64115;BME280;62188;35.640;139.748;2023-02-01T11:55:59;100679.45;;;13.73;24.49
64115;BME280;62188;35.640;139.748;2023-02-01T11:58:30;100682.27;;;13.96;24.54
64115;BME280;62188;35.640;139.748;2023-02-01T12:00:53;100679.98;;;13.87;24.67
64115;BME280;62188;35.640;139.748;2023-02-01T12:05:42;100676.06;;;13.90;24.77
64115;BME280;62188;35.640;139.748;2023-02-01T12:08:09;100678.67;;;13.64;24.87
64115;BME280;62188;35.640;139.748;2023-02-01T12:10:32;100679.54;;;13.56;24.96
64115;BME280;62188;35.640;139.748;2023-02-01T12:12:54;100681.47;;;13.61;25.04
64115;BME280;62188;35.640;139.748;2023-02-01T12:15:26;100674.56;;;13.80;25.15
64115;BME280;62188;35.640;139.748;2023-02-01T12:17:53;100674.12;;;13.60;25.27
64115;BME280;62188;35.640;139.748;2023-02-01T12:20:20;100681.10;;;13.66;25.27
64115;BME280;62188;35.640;139.748;2023-02-01T12:22:42;100676.61;;;13.63;25.27
64115;BME280;62188;35.640;139.748;2023-02-01T12:25:16;100673.88;;;13.72;25.35
64115;BME280;62188;35.640;139.748;2023-02-01T12:27:33;100670.25;;;13.79;25.37
64115;BME280;62188;35.640;139.748;2023-02-01T12:30:03;100677.70;;;13.72;25.37
64115;BME280;62188;35.640;139.748;2023-02-01T12:32:27;100673.56;;;13.91;25.47
64115;BME280;62188;35.640;139.748;2023-02-01T12:34:56;100673.72;;;13.74;25.46
64115;BME280;62188;35.640;139.748;2023-02-01T12:37:13;100673.99;;;13.69;25.55
64115;BME280;62188;35.640;139.748;2023-02-01T12:39:35;100672.46;;;13.73;25.60
64115;BME280;62188;35.640;139.748;2023-02-01T12:42:01;100668.43;;;13.81;25.60
64115;BME280;62188;35.640;139.748;2023-02-01T12:44:33;100675.30;;;13.77;25.75
64115;BME280;62188;35.640;139.748;2023-02-01T12:46:52;100672.49;;;13.81;25.82